Time;durP1;ratioP1;P1;durP2;ratioP2;P2;SDS_P1;SDS_P2;PMS_P1;PMS_P2;Temp;Humidity;BMP_temperature;BMP_pressure;BME280_temperature;BME280_humidity;BME280_pressure;Samples;Min_cycle;Max_cycle;Signal;HPM_P1;HPM_P2
2022/05/23 00:00:22;;;;;;;5.55;3.97;;;18.10;32.90;;;;;;5010382;28;20416;-74
2022/05/23 00:02:48;;;;;;;5.20;3.78;;;18.20;33.20;;;;;;5011202;28;20389;-74
2022/05/23 00:05:14;;;;;;;5.77;4.40;;;18.20;32.10;;;;;;5011086;28;20486;-74
2022/05/23 00:07:43;;;;;;;4.70;4.00;;;18.10;31.90;;;;;;5017002;28;20399;-74
2022/05/23 00:10:11;;;;;;;7.53;5.27;;;18.10;32.60;;;;;;5010952;28;20409;-74
2022/05/23 00:12:37;;;;;;;6.43;4.15;;;18.00;33.20;;;;;;5010883;28;20432;-74
2022/05/23 00:15:04;;;;;;;7.53;4.50;;;18.10;31.80;;;;;;5011150;28;20431;-74
2022/05/23 00:17:30;;;;;;;7.55;3.38;;;18.00;31.60;;;;;;5010739;28;20491;-75
2022/05/23 00:19:55;;;;;;;13.67;4.53;;;18.00;31.30;;;;;;5011633;28;20488;-75
2022/05/23 00:22:21;;;;;;;5.80;3.90;;;17.90;31.50;;;;;;5011060;28;21195;-74
2022/05/23 00:24:46;;;;;;;4.68;3.40;;;18.00;31.60;;;;;;5011238;28;20454;-74
2022/05/23 00:27:16;;;;;;;6.50;4.10;;;17.90;31.50;;;;;;5011251;28;20463;-75
2022/05/23 00:29:41;;;;;;;5.82;3.60;;;18.00;31.30;;;;;;5011996;28;20413;-75
2022/05/23 00:37:37;;;;;;;5.20;3.37;;;18.00;30.90;;;;;;5011843;28;20508;-75
2022/05/23 00:40:04;;;;;;;5.07;3.87;;;18.00;30.60;;;;;;5010671;28;20520;-75
2022/05/23 00:45:18;;;;;;;7.22;3.83;;;17.80;30.80;;;;;;5011005;28;20440;-75
2022/05/23 00:47:45;;;;;;;6.10;4.03;;;17.90;30.20;;;;;;5011117;28;20424;-75
2022/05/23 00:50:14;;;;;;;6.30;4.00;;;18.00;29.60;;;;;;5010815;28;20411;-74
2022/05/23 00:52:46;;;;;;;5.97;3.60;;;18.00;29.80;;;;;;5009932;28;20469;-74
2022/05/23 00:55:26;;;;;;;9.43;4.30;;;18.20;28.70;;;;;;5010849;28;20459;-74
2022/05/23 00:58:01;;;;;;;9.77;4.10;;;18.10;28.60;;;;;;5013252;28;20392;-75
2022/05/23 01:00:27;;;;;;;6.97;3.50;;;18.20;28.40;;;;;;5011941;28;20455;-76
2022/05/23 01:02:56;;;;;;;8.65;3.78;;;18.20;27.70;;;;;;5012000;28;20404;-75
2022/05/23 01:05:23;;;;;;;4.88;3.45;;;18.30;27.90;;;;;;5009604;28;20412;-76
2022/05/23 01:07:49;;;;;;;5.82;3.60;;;18.20;27.50;;;;;;5011239;28;20404;-74
2022/05/23 01:10:14;;;;;;;4.50;3.50;;;18.20;27.50;;;;;;5011483;28;20448;-75
2022/05/23 01:12:41;;;;;;;6.30;3.80;;;18.10;27.80;;;;;;5011743;28;20440;-75
2022/05/23 01:15:23;;;;;;;6.70;3.60;;;18.10;28.00;;;;;;5012061;28;20433;-75
2022/05/23 01:17:49;;;;;;;10.00;4.10;;;18.00;28.20;;;;;;5015517;28;20454;-76
2022/05/23 01:20:15;;;;;;;8.52;4.10;;;18.00;28.80;;;;;;5012050;28;21243;-75
2022/05/23 01:22:49;;;;;;;6.28;3.60;;;18.00;28.60;;;;;;5012878;28;20412;-75
2022/05/23 01:25:17;;;;;;;7.57;3.80;;;18.00;28.40;;;;;;5011868;28;20901;-75
2022/05/23 01:27:44;;;;;;;4.43;3.83;;;18.00;28.40;;;;;;5012083;28;20413;-75
2022/05/23 01:30:10;;;;;;;4.45;3.70;;;17.90;28.70;;;;;;5012044;28;20749;-78
2022/05/23 01:32:38;;;;;;;7.47;4.90;;;18.00;28.20;;;;;;5010934;28;20586;-75
2022/05/23 01:35:11;;;;;;;8.77;4.20;;;18.00;28.20;;;;;;5017167;28;20960;-75
2022/05/23 01:37:37;;;;;;;7.57;3.50;;;18.10;27.90;;;;;;5009768;28;20850;-75
2022/05/23 01:40:04;;;;;;;7.68;3.70;;;18.00;28.00;;;;;;5013347;28;20405;-75
2022/05/23 01:42:30;;;;;;;6.10;3.50;;;18.00;28.00;;;;;;5013407;28;20408;-75
2022/05/23 01:44:55;;;;;;;5.60;3.70;;;18.10;27.90;;;;;;5015225;28;20410;-74
2022/05/23 01:47:22;;;;;;;7.80;4.00;;;18.10;28.20;;;;;;5013386;28;20504;-74
2022/05/23 01:49:47;;;;;;;9.87;4.40;;;18.00;28.20;;;;;;5012370;28;20833;-75
2022/05/23 01:52:13;;;;;;;7.10;4.13;;;18.00;28.20;;;;;;5015222;28;20420;-76
2022/05/23 01:54:39;;;;;;;8.57;3.90;;;18.00;28.70;;;;;;5015022;28;20825;-77
2022/05/23 01:57:08;;;;;;;8.40;3.60;;;18.00;28.60;;;;;;5013912;28;20424;-75
2022/05/23 02:02:18;;;;;;;7.33;3.70;;;18.00;28.50;;;;;;5013397;28;20504;-75
2022/05/23 02:04:45;;;;;;;8.65;4.00;;;18.10;28.50;;;;;;5013419;28;20424;-75
2022/05/23 02:07:11;;;;;;;6.22;3.78;;;18.10;28.60;;;;;;5015612;28;20401;-75
2022/05/23 02:09:38;;;;;;;7.60;3.83;;;18.00;28.70;;;;;;5017123;28;20417;-74
2022/05/23 02:12:04;;;;;;;5.85;3.83;;;18.10;28.40;;;;;;5019418;28;20404;-75
2022/05/23 02:14:30;;;;;;;5.30;4.20;;;18.10;28.40;;;;;;5016876;28;20393;-75
2022/05/23 02:16:56;;;;;;;7.03;4.10;;;18.10;28.50;;;;;;5015181;28;20403;-76
2022/05/23 02:19:21;;;;;;;10.02;4.18;;;18.10;28.50;;;;;;5008143;28;20413;-75
2022/05/23 02:21:47;;;;;;;5.40;3.78;;;18.10;27.80;;;;;;5011744;28;20447;-76
2022/05/23 02:24:12;;;;;;;4.80;4.00;;;18.10;27.20;;;;;;5009807;28;20392;-76
2022/05/23 02:26:38;;;;;;;6.35;4.18;;;18.20;27.10;;;;;;5013826;28;20467;-75
2022/05/23 02:29:04;;;;;;;9.00;3.70;;;18.10;27.00;;;;;;5012054;28;20412;-75
2022/05/23 02:31:30;;;;;;;7.20;3.40;;;18.10;27.10;;;;;;5013301;28;20436;-75
2022/05/23 02:33:57;;;;;;;6.18;3.80;;;18.00;26.90;;;;;;5014796;28;20396;-77
2022/05/23 02:36:22;;;;;;;7.85;4.30;;;18.10;27.30;;;;;;5008350;28;20397;-76
2022/05/23 02:38:48;;;;;;;6.03;4.00;;;18.10;26.80;;;;;;5012926;28;20492;-76
2022/05/23 02:41:13;;;;;;;12.93;4.13;;;18.10;26.90;;;;;;5015777;28;20403;-76
2022/05/23 02:43:39;;;;;;;7.47;3.73;;;18.20;26.60;;;;;;5015606;28;20488;-76
2022/05/23 02:46:04;;;;;;;9.10;4.22;;;18.10;26.70;;;;;;5013937;28;20400;-75
2022/05/23 02:48:30;;;;;;;5.20;3.70;;;18.10;26.80;;;;;;5013328;28;20780;-75
2022/05/23 02:50:55;;;;;;;9.37;3.70;;;18.00;27.00;;;;;;5016386;28;20808;-75
2022/05/23 02:53:21;;;;;;;9.93;3.97;;;18.00;26.90;;;;;;5012146;28;20936;-75
2022/05/23 02:55:47;;;;;;;7.53;4.30;;;18.00;26.90;;;;;;5011855;28;20397;-76
2022/05/23 02:58:12;;;;;;;7.60;4.18;;;18.00;26.90;;;;;;5020392;28;20395;-76
2022/05/23 03:00:39;;;;;;;7.05;4.10;;;18.00;26.90;;;;;;5016755;28;20405;-76
2022/05/23 03:03:06;;;;;;;6.22;4.00;;;17.90;27.20;;;;;;5019576;28;20396;-75
2022/05/23 03:05:45;;;;;;;5.50;3.85;;;17.90;27.50;;;;;;5028211;28;20403;-75
2022/05/23 03:08:13;;;;;;;8.23;4.25;;;17.80;27.70;;;;;;5027356;28;20387;-76
2022/05/23 03:10:39;;;;;;;7.65;3.50;;;17.90;27.50;;;;;;5020185;28;20416;-76
2022/05/23 03:13:05;;;;;;;6.40;3.90;;;17.90;27.60;;;;;;5015528;28;20397;-76
2022/05/23 03:15:31;;;;;;;8.05;4.20;;;17.90;27.90;;;;;;5012696;28;20400;-76
2022/05/23 03:17:57;;;;;;;4.80;4.30;;;17.80;28.20;;;;;;5018312;28;20459;-76
2022/05/23 03:20:22;;;;;;;7.97;4.50;;;17.80;28.50;;;;;;5009895;28;20401;-76
2022/05/23 03:28:16;;;;;;;6.28;4.40;;;18.00;28.00;;;;;;5014669;28;20388;-76
2022/05/23 03:30:42;;;;;;;9.53;4.30;;;17.80;28.70;;;;;;5017552;28;20453;-76
2022/05/23 03:33:08;;;;;;;6.90;4.20;;;17.70;29.20;;;;;;5012034;28;20411;-75
2022/05/23 03:35:34;;;;;;;6.78;4.03;;;17.90;28.90;;;;;;5012256;28;20432;-76
2022/05/23 03:38:01;;;;;;;7.67;4.33;;;17.80;28.50;;;;;;5019022;28;20407;-76
2022/05/23 03:40:27;;;;;;;6.88;3.80;;;17.70;28.90;;;;;;5012663;28;20401;-75
2022/05/23 03:42:54;;;;;;;8.73;3.83;;;17.70;30.00;;;;;;5011791;28;20497;-75
2022/05/23 03:45:20;;;;;;;7.80;4.40;;;17.70;29.10;;;;;;5019229;28;20391;-75
2022/05/23 03:47:46;;;;;;;6.35;3.53;;;17.60;29.30;;;;;;5015425;28;20772;-77
2022/05/23 03:50:12;;;;;;;7.10;4.20;;;17.60;29.20;;;;;;5015051;28;20423;-76
2022/05/23 03:52:38;;;;;;;7.70;3.95;;;17.50;29.70;;;;;;5011387;28;20413;-75
2022/05/23 03:55:05;;;;;;;7.77;4.63;;;17.60;29.40;;;;;;5019405;28;20466;-76
2022/05/23 03:57:30;;;;;;;6.13;3.78;;;17.60;30.00;;;;;;5017098;28;20388;-75
2022/05/23 03:59:57;;;;;;;8.90;4.40;;;17.60;29.90;;;;;;5011800;28;20401;-76
2022/05/23 04:02:23;;;;;;;6.80;4.07;;;17.50;29.80;;;;;;5010534;28;20392;-76
2022/05/23 04:04:49;;;;;;;6.28;4.00;;;17.60;29.70;;;;;;5017819;28;20753;-75
2022/05/23 04:07:15;;;;;;;6.50;4.07;;;17.60;29.50;;;;;;5019340;28;20395;-76
2022/05/23 04:09:41;;;;;;;8.35;4.22;;;17.60;29.90;;;;;;5014636;28;20417;-76
2022/05/23 04:12:06;;;;;;;8.07;4.20;;;17.60;29.80;;;;;;5011481;28;20416;-75
2022/05/23 04:14:32;;;;;;;6.60;3.80;;;17.70;29.50;;;;;;5016484;28;20849;-74
2022/05/23 04:16:58;;;;;;;7.93;4.20;;;17.70;29.60;;;;;;5021328;28;20393;-76
2022/05/23 04:19:25;;;;;;;6.55;4.00;;;17.80;29.20;;;;;;5011115;28;20404;-76
2022/05/23 04:21:51;;;;;;;8.40;4.30;;;17.90;29.20;;;;;;5012253;28;20533;-76
2022/05/23 04:24:18;;;;;;;8.33;3.90;;;18.20;28.50;;;;;;5018743;28;20829;-76
2022/05/23 04:26:44;;;;;;;9.27;4.10;;;18.10;28.60;;;;;;5014057;28;20483;-75
2022/05/23 04:29:10;;;;;;;7.78;4.10;;;18.10;28.60;;;;;;5013786;28;20408;-75
2022/05/23 04:31:36;;;;;;;6.28;3.58;;;18.30;28.80;;;;;;5009927;28;20492;-75
2022/05/23 04:36:50;;;;;;;5.35;3.83;;;18.50;27.70;;;;;;5014526;28;20423;-75
2022/05/23 04:39:16;;;;;;;7.68;4.55;;;18.60;27.20;;;;;;5015433;28;20402;-76
2022/05/23 04:41:41;;;;;;;12.63;4.40;;;18.60;27.50;;;;;;5013281;28;20904;-75
2022/05/23 04:44:07;;;;;;;6.32;3.83;;;18.60;27.70;;;;;;5013942;28;20404;-76
2022/05/23 04:46:33;;;;;;;8.50;3.77;;;18.70;27.30;;;;;;5016773;28;20396;-76
2022/05/23 04:51:43;;;;;;;10.63;4.40;;;18.70;28.10;;;;;;5009545;28;20391;-75
2022/05/23 04:54:09;;;;;;;6.87;4.40;;;18.70;27.10;;;;;;5016149;28;20406;-76
2022/05/23 04:56:36;;;;;;;7.20;4.40;;;18.80;26.80;;;;;;5010923;28;20923;-76
2022/05/23 04:59:02;;;;;;;7.38;4.30;;;18.70;27.20;;;;;;5019516;28;20455;-75
2022/05/23 05:01:27;;;;;;;10.83;3.97;;;18.80;26.90;;;;;;5011130;28;20795;-75
2022/05/23 05:03:55;;;;;;;7.73;4.43;;;18.80;27.40;;;;;;5014720;28;20397;-75
2022/05/23 05:06:22;;;;;;;8.15;4.20;;;18.80;27.60;;;;;;5015867;28;20400;-75
2022/05/23 05:08:48;;;;;;;8.25;4.13;;;18.80;27.80;;;;;;5016154;28;20412;-76
2022/05/23 05:11:14;;;;;;;9.95;4.15;;;18.80;27.50;;;;;;5013345;28;20499;-74
2022/05/23 05:13:40;;;;;;;7.75;4.40;;;18.80;27.20;;;;;;5013307;28;20508;-75
2022/05/23 05:16:06;;;;;;;11.77;3.80;;;18.90;27.40;;;;;;5011734;28;20978;-75
2022/05/23 05:18:33;;;;;;;8.13;4.28;;;19.00;26.70;;;;;;5004650;28;20409;-76
2022/05/23 05:21:06;;;;;;;8.27;3.80;;;19.30;26.50;;;;;;5018006;28;20401;-74
2022/05/23 05:23:31;;;;;;;5.55;3.70;;;19.40;25.40;;;;;;5009968;28;20412;-74
2022/05/23 05:25:57;;;;;;;5.82;3.63;;;19.40;25.80;;;;;;5010223;28;20404;-76
2022/05/23 05:28:23;;;;;;;7.03;5.22;;;19.40;25.00;;;;;;5010575;28;20417;-76
2022/05/23 05:30:53;;;;;;;7.28;4.10;;;19.50;25.00;;;;;;5009182;28;20400;-76
2022/05/23 05:33:22;;;;;;;10.77;4.50;;;19.60;25.30;;;;;;5008355;28;20414;-76
2022/05/23 05:35:51;;;;;;;5.55;3.60;;;19.70;24.60;;;;;;5013638;28;20723;-76
2022/05/23 05:38:20;;;;;;;9.68;3.65;;;19.70;24.10;;;;;;5013042;28;20404;-76
2022/05/23 05:40:50;;;;;;;7.37;3.70;;;19.80;23.60;;;;;;5015787;28;20445;-75
2022/05/23 05:43:25;;;;;;;4.93;3.20;;;19.90;23.50;;;;;;5008498;28;20722;-75
2022/05/23 05:45:55;;;;;;;6.30;3.50;;;20.00;23.00;;;;;;5018255;28;20439;-76
2022/05/23 05:48:21;;;;;;;5.85;3.50;;;20.00;23.20;;;;;;5015159;28;20408;-76
2022/05/23 05:50:49;;;;;;;8.32;4.20;;;20.20;22.60;;;;;;5018658;28;20508;-76
2022/05/23 05:53:22;;;;;;;4.90;3.53;;;20.20;23.20;;;;;;5015014;28;20405;-76
2022/05/23 05:55:48;;;;;;;7.40;3.80;;;20.30;22.60;;;;;;5020497;28;20404;-78
2022/05/23 05:58:15;;;;;;;5.57;3.60;;;20.30;23.10;;;;;;5013595;28;20411;-78
2022/05/23 06:00:41;;;;;;;9.00;3.78;;;20.20;22.40;;;;;;5013181;28;20439;-76
2022/05/23 06:03:06;;;;;;;7.17;4.30;;;20.10;22.70;;;;;;5020344;28;20406;-76
2022/05/23 06:11:23;;;;;;;4.78;3.85;;;20.10;22.60;;;;;;5013514;28;20446;-75
2022/05/23 06:13:47;;;;;;;7.63;3.80;;;20.10;23.10;;;;;;5016058;28;20925;-76
2022/05/23 06:16:13;;;;;;;8.50;3.70;;;20.20;22.20;;;;;;5021798;28;20404;-75
2022/05/23 06:18:38;;;;;;;6.77;3.50;;;20.20;22.50;;;;;;5013625;28;20405;-76
2022/05/23 06:21:09;;;;;;;7.40;3.43;;;20.30;22.60;;;;;;5023972;28;20411;-76
2022/05/23 06:23:41;;;;;;;5.97;3.63;;;20.40;22.10;;;;;;5014050;28;20420;-76
2022/05/23 06:26:07;;;;;;;9.17;3.60;;;20.50;22.00;;;;;;5025563;28;20459;-74
2022/05/23 06:28:35;;;;;;;8.93;3.73;;;20.60;21.80;;;;;;5017748;28;20411;-75
2022/05/23 06:31:02;;;;;;;5.30;3.40;;;20.80;21.30;;;;;;5021653;28;20396;-74
2022/05/23 06:33:28;;;;;;;8.35;3.80;;;21.10;21.00;;;;;;5012048;28;20399;-75
2022/05/23 06:35:54;;;;;;;7.60;3.70;;;21.10;20.70;;;;;;5013675;28;20401;-76
2022/05/23 06:38:19;;;;;;;8.05;3.88;;;21.20;20.60;;;;;;5012175;28;20432;-74
2022/05/23 06:40:50;;;;;;;6.50;3.13;;;21.40;20.00;;;;;;5012933;28;20397;-76
2022/05/23 06:43:16;;;;;;;11.25;4.13;;;21.50;19.50;;;;;;5013438;28;20389;-74
2022/05/23 06:45:41;;;;;;;5.10;3.42;;;21.60;19.20;;;;;;5014862;28;20426;-75
2022/05/23 06:48:08;;;;;;;9.20;3.93;;;21.70;19.10;;;;;;5018926;28;20418;-74
2022/05/23 06:50:34;;;;;;;4.85;3.00;;;21.80;19.10;;;;;;5012530;28;20412;-74
2022/05/23 06:52:59;;;;;;;9.63;3.60;;;22.00;18.60;;;;;;5006819;28;20409;-74
2022/05/23 06:55:25;;;;;;;7.33;3.40;;;22.30;17.80;;;;;;5016264;28;20411;-76
2022/05/23 06:57:50;;;;;;;5.75;3.40;;;22.40;17.70;;;;;;5011936;28;20910;-76
2022/05/23 07:00:17;;;;;;;6.43;3.20;;;22.30;17.10;;;;;;5020716;28;20407;-75
2022/05/23 07:02:43;;;;;;;4.88;3.10;;;22.20;17.10;;;;;;5009634;28;20680;-75
2022/05/23 07:13:23;;;;;;;4.03;3.00;;;22.40;16.60;;;;;;5009588;28;20398;-74
2022/05/23 07:15:48;;;;;;;7.03;3.17;;;22.60;16.40;;;;;;5003268;28;20515;-75
2022/05/23 07:18:18;;;;;;;11.50;3.80;;;22.60;16.30;;;;;;5005812;28;20412;-75
2022/05/23 07:20:44;;;;;;;6.72;2.97;;;22.80;16.60;;;;;;5012159;28;20874;-75
2022/05/23 07:23:11;;;;;;;5.57;3.30;;;23.00;15.90;;;;;;5017599;28;20442;-76
2022/05/23 07:25:37;;;;;;;6.63;3.33;;;22.70;15.90;;;;;;5018767;28;20432;-74
2022/05/23 07:28:03;;;;;;;9.48;3.55;;;22.40;16.60;;;;;;5013934;28;20404;-74
2022/05/23 07:30:29;;;;;;;6.53;3.67;;;22.20;16.80;;;;;;5007779;28;20503;-76
2022/05/23 07:32:55;;;;;;;5.97;3.70;;;22.30;16.60;;;;;;5004715;28;20497;-75
2022/05/23 07:35:20;;;;;;;6.10;3.13;;;22.30;16.80;;;;;;5001775;28;20409;-74
2022/05/23 07:37:46;;;;;;;7.93;3.57;;;22.40;16.30;;;;;;5009077;28;20474;-76
2022/05/23 07:40:15;;;;;;;6.40;3.90;;;22.40;16.80;;;;;;5014128;28;20399;-76
2022/05/23 07:42:42;;;;;;;8.90;3.42;;;22.20;16.70;;;;;;5009530;28;20500;-75
2022/05/23 07:45:08;;;;;;;5.82;4.00;;;22.10;17.20;;;;;;5010822;28;20510;-76
2022/05/23 07:47:34;;;;;;;8.05;3.97;;;22.10;17.10;;;;;;5010295;28;20400;-76
2022/05/23 07:50:00;;;;;;;7.50;3.90;;;22.00;17.40;;;;;;5004654;28;20412;-76
2022/05/23 07:52:26;;;;;;;14.70;4.00;;;22.20;17.30;;;;;;5003722;28;20494;-75
2022/05/23 08:00:32;;;;;;;5.43;3.53;;;22.40;17.40;;;;;;5007259;28;20503;-75
2022/05/23 08:02:59;;;;;;;9.30;4.03;;;22.00;17.20;;;;;;5007290;28;20420;-75
2022/05/23 08:05:24;;;;;;;5.50;3.30;;;22.10;17.50;;;;;;5008484;28;20444;-76
2022/05/23 08:07:50;;;;;;;9.55;4.00;;;22.10;18.00;;;;;;5007265;28;20451;-74
2022/05/23 08:10:16;;;;;;;7.07;3.70;;;22.30;17.50;;;;;;5010664;28;20463;-76
2022/05/23 08:12:49;;;;;;;6.45;3.70;;;22.40;17.40;;;;;;5030286;23;20448;-78
2022/05/23 08:15:15;;;;;;;9.32;4.18;;;22.20;17.40;;;;;;5011850;28;21006;-75
2022/05/23 08:17:41;;;;;;;5.07;3.30;;;22.20;17.50;;;;;;5010456;28;20417;-75
2022/05/23 08:20:07;;;;;;;5.65;3.40;;;22.30;17.30;;;;;;5011837;28;20514;-75
2022/05/23 08:22:32;;;;;;;6.85;3.50;;;22.40;17.00;;;;;;5011238;28;20420;-77
2022/05/23 08:24:58;;;;;;;6.20;4.00;;;22.90;16.50;;;;;;5014514;28;20781;-75
2022/05/23 08:27:24;;;;;;;8.15;3.70;;;23.50;15.90;;;;;;5014221;28;20401;-79
2022/05/23 08:29:52;;;;;;;8.23;3.87;;;24.00;14.60;;;;;;5020153;28;20987;-77
2022/05/23 08:32:18;;;;;;;5.70;3.40;;;24.50;13.90;;;;;;5013966;28;20492;-75
2022/05/23 08:34:44;;;;;;;7.60;3.65;;;24.50;13.90;;;;;;5031860;28;20409;-80
2022/05/23 08:37:10;;;;;;;7.15;3.20;;;24.60;13.10;;;;;;5007279;28;20563;-75
2022/05/23 08:39:35;;;;;;;8.60;3.75;;;24.70;13.10;;;;;;5010236;28;20702;-75
2022/05/23 08:42:18;;;;;;;7.13;3.30;;;24.90;13.40;;;;;;5010965;28;20417;-77
2022/05/23 08:44:57;;;;;;;5.28;3.10;;;25.00;13.30;;;;;;5010252;28;20423;-83
2022/05/23 08:47:47;;;;;;;7.90;3.70;;;25.10;13.30;;;;;;5018396;28;20492;-76
2022/05/23 08:50:56;;;;;;;9.35;3.67;;;24.70;13.30;;;;;;5024011;28;20419;-76
2022/05/23 08:53:28;;;;;;;6.07;2.92;;;24.70;13.20;;;;;;5012406;28;20456;-77
2022/05/23 08:55:59;;;;;;;5.40;3.30;;;24.70;13.70;;;;;;5016467;28;20472;-75
2022/05/23 08:58:52;;;;;;;8.13;4.00;;;25.00;13.40;;;;;;5021011;28;20476;-75
2022/05/23 09:01:48;;;;;;;6.50;3.70;;;25.00;12.70;;;;;;5014258;28;20397;-77
2022/05/23 09:04:32;;;;;;;6.03;2.90;;;25.00;13.20;;;;;;5007574;28;20384;-78
2022/05/23 09:07:01;;;;;;;7.90;3.50;;;24.70;12.80;;;;;;5012419;28;20389;-76
2022/05/23 09:09:31;;;;;;;6.43;3.60;;;24.50;13.80;;;;;;5013793;28;20455;-74
2022/05/23 09:12:07;;;;;;;13.63;4.10;;;24.30;14.20;;;;;;5011503;28;20400;-77
2022/05/23 09:14:33;;;;;;;6.07;3.80;;;24.00;15.30;;;;;;5013310;28;20401;-75
2022/05/23 09:16:59;;;;;;;5.03;3.43;;;24.10;15.40;;;;;;5013108;28;20393;-77
2022/05/23 09:20:05;;;;;;;6.50;4.20;;;24.30;14.40;;;;;;5017274;28;20479;-82
2022/05/23 09:22:53;;;;;;;5.80;3.85;;;24.30;15.10;;;;;;4978505;28;20426;-83
2022/05/23 09:25:25;;;;;;;7.18;3.50;;;24.30;14.70;;;;;;4993004;28;20474;-79
2022/05/23 09:28:09;;;;;;;5.70;3.40;;;24.30;14.60;;;;;;5007394;28;20436;-80
2022/05/23 09:30:36;;;;;;;6.68;3.60;;;24.20;15.00;;;;;;5011353;28;20419;-80
2022/05/23 09:33:02;;;;;;;6.97;4.05;;;24.40;14.90;;;;;;5015457;28;21665;-80
2022/05/23 09:35:46;;;;;;;5.60;3.10;;;24.50;15.80;;;;;;5017649;28;20405;-79
2022/05/23 09:38:21;;;;;;;8.25;3.80;;;24.50;15.10;;;;;;5016800;28;20475;-78
2022/05/23 09:40:47;;;;;;;3.40;3.10;;;24.20;15.30;;;;;;5014858;28;20409;-80
2022/05/23 09:49:20;;;;;;;6.55;3.40;;;24.50;15.60;;;;;;5016333;28;20921;-80
2022/05/23 09:51:59;;;;;;;7.15;2.95;;;24.60;15.10;;;;;;5015042;28;20462;-77
2022/05/23 09:54:52;;;;;;;3.63;2.80;;;25.00;14.80;;;;;;5023672;28;20409;-78
2022/05/23 09:57:39;;;;;;;6.78;3.30;;;25.60;14.10;;;;;;5014848;28;20401;-80
2022/05/23 10:00:32;;;;;;;7.10;3.00;;;25.90;13.00;;;;;;5021492;28;20431;-78
2022/05/23 10:03:01;;;;;;;7.40;3.10;;;26.00;12.60;;;;;;5017498;28;20409;-79
2022/05/23 10:05:39;;;;;;;4.72;2.60;;;26.20;12.90;;;;;;5015426;28;20440;-78
2022/05/23 10:08:29;;;;;;;8.43;3.25;;;26.10;11.90;;;;;;5015662;28;20878;-79
2022/05/23 10:10:58;;;;;;;6.68;3.00;;;26.10;12.00;;;;;;5019091;28;20417;-77
2022/05/23 10:13:38;;;;;;;4.57;3.10;;;26.30;12.10;;;;;;5013703;28;20525;-80
2022/05/23 10:16:26;;;;;;;5.43;2.95;;;26.00;12.70;;;;;;5012031;28;20401;-79
2022/05/23 10:19:00;;;;;;;7.47;3.08;;;25.80;12.60;;;;;;5014034;28;20768;-80
2022/05/23 10:21:43;;;;;;;8.10;3.10;;;25.90;13.00;;;;;;5015168;28;20401;-77
2022/05/23 10:24:18;;;;;;;5.83;2.90;;;26.20;13.20;;;;;;5020487;28;20440;-78
2022/05/23 10:26:53;;;;;;;3.55;2.90;;;26.40;12.90;;;;;;5017269;28;20409;-80
2022/05/23 10:29:34;;;;;;;5.53;2.97;;;26.60;12.20;;;;;;5015183;28;20499;-80
2022/05/23 10:34:42;;;;;;;4.43;3.00;;;26.20;12.60;;;;;;4391601;23;20869;-75
2022/05/23 10:37:14;;;;;;;6.22;2.80;;;26.30;12.70;;;;;;5031982;28;20967;-75
2022/05/23 10:42:47;;;;;;;3.35;3.00;;;26.90;12.00;;;;;;5022817;28;20392;-77
2022/05/23 10:45:25;;;;;;;4.75;3.00;;;27.50;10.80;;;;;;5025357;23;20440;-74
2022/05/23 10:48:15;;;;;;;5.65;2.90;;;27.50;10.80;;;;;;5016173;28;20414;-74
2022/05/23 10:51:00;;;;;;;9.93;2.92;;;27.70;10.40;;;;;;5013955;28;20409;-76
2022/05/23 10:53:31;;;;;;;4.45;2.78;;;27.40;10.70;;;;;;5015737;28;20400;-75
2022/05/23 10:56:03;;;;;;;6.40;3.10;;;27.10;11.50;;;;;;5014282;28;20423;-76
2022/05/23 10:59:05;;;;;;;7.85;3.35;;;27.10;12.00;;;;;;5014586;28;20401;-74
2022/05/23 11:01:40;;;;;;;7.88;2.95;;;27.30;11.00;;;;;;5012628;28;20409;-75
2022/05/23 11:04:05;;;;;;;6.70;3.10;;;27.50;10.90;;;;;;5014836;28;20911;-74
2022/05/23 11:06:54;;;;;;;3.80;2.90;;;27.20;11.70;;;;;;5014688;28;20490;-77
2022/05/23 11:09:51;;;;;;;7.53;3.40;;;27.30;11.60;;;;;;5012401;28;20440;-74
2022/05/23 11:12:40;;;;;;;6.22;2.80;;;27.10;11.80;;;;;;5015435;28;20409;-75
2022/05/23 11:15:43;;;;;;;6.22;2.90;;;26.90;11.90;;;;;;5012985;28;20397;-74
2022/05/23 11:18:33;;;;;;;6.65;3.10;;;26.60;12.40;;;;;;5007014;28;20413;-74
2022/05/23 11:21:06;;;;;;;6.05;3.10;;;26.30;13.90;;;;;;5010217;28;20405;-75
2022/05/23 11:23:51;;;;;;;4.00;2.97;;;26.20;14.10;;;;;;5008521;28;20408;-75
2022/05/23 11:26:22;;;;;;;5.27;3.40;;;26.20;14.80;;;;;;5009095;28;20413;-74
2022/05/23 11:34:42;;;;;;;8.38;3.38;;;26.00;14.60;;;;;;5009469;28;20912;-75
2022/05/23 11:39:56;;;;;;;6.70;3.50;;;25.90;14.50;;;;;;5009894;28;21155;-73
2022/05/23 11:42:24;;;;;;;8.02;2.85;;;25.90;15.20;;;;;;5008505;28;20408;-72
2022/05/23 11:44:53;;;;;;;4.87;3.13;;;26.00;15.30;;;;;;5008640;28;20420;-76
2022/05/23 11:47:25;;;;;;;6.78;2.85;;;26.10;15.80;;;;;;5010440;28;20426;-73
2022/05/23 11:50:00;;;;;;;4.93;3.10;;;26.10;14.90;;;;;;5011906;28;20416;-75
2022/05/23 11:52:33;;;;;;;4.30;3.30;;;26.30;14.70;;;;;;5008245;28;20546;-76
2022/05/23 11:54:58;;;;;;;6.93;3.30;;;26.10;15.30;;;;;;5009320;28;20439;-74
2022/05/23 11:57:39;;;;;;;4.90;3.08;;;26.10;15.60;;;;;;5011963;28;20412;-75
2022/05/23 12:00:35;;;;;;;5.20;3.60;;;26.10;15.50;;;;;;5009796;28;20428;-76
2022/05/23 12:03:11;;;;;;;5.75;3.15;;;26.10;15.90;;;;;;5011130;28;20890;-75
2022/05/23 12:05:37;;;;;;;5.00;3.50;;;26.20;15.60;;;;;;5011749;28;20405;-76
2022/05/23 12:08:06;;;;;;;4.68;3.28;;;26.30;16.10;;;;;;5014878;28;20421;-76
2022/05/23 12:10:36;;;;;;;5.15;3.40;;;26.60;15.70;;;;;;5017518;28;20413;-74
2022/05/23 12:13:30;;;;;;;5.32;3.50;;;26.90;14.50;;;;;;5022235;28;20408;-77
2022/05/23 12:15:56;;;;;;;6.07;3.70;;;27.00;14.90;;;;;;5016114;28;20393;-75
2022/05/23 12:18:22;;;;;;;4.32;3.30;;;27.20;14.80;;;;;;5016570;28;20543;-75
2022/05/23 12:21:09;;;;;;;11.60;3.20;;;27.60;13.50;;;;;;5011195;28;20467;-75
2022/05/23 12:23:45;;;;;;;6.25;3.10;;;28.10;13.70;;;;;;5016030;28;20393;-75
2022/05/23 12:26:10;;;;;;;5.10;3.28;;;28.30;13.00;;;;;;5026658;28;20491;-75
2022/05/23 12:28:58;;;;;;;7.80;3.43;;;28.80;12.20;;;;;;5016679;28;21071;-76
2022/05/23 12:31:27;;;;;;;5.60;3.40;;;29.00;11.70;;;;;;5014801;28;21032;-76
2022/05/23 12:34:13;;;;;;;7.07;3.30;;;29.30;11.20;;;;;;5012771;28;20456;-76
2022/05/23 12:36:52;;;;;;;4.80;3.00;;;29.30;11.20;;;;;;5005741;28;20969;-76
2022/05/23 12:39:36;;;;;;;5.97;3.35;;;29.10;11.10;;;;;;5006855;28;20499;-76
2022/05/23 12:42:07;;;;;;;3.80;2.90;;;28.70;11.40;;;;;;5012127;28;20404;-77
2022/05/23 12:44:57;;;;;;;5.83;3.20;;;28.50;12.10;;;;;;5011877;28;20404;-74
2022/05/23 12:47:41;;;;;;;5.95;3.05;;;28.10;13.20;;;;;;5003106;28;20412;-76
2022/05/23 12:50:15;;;;;;;7.00;3.47;;;27.80;13.80;;;;;;5011061;28;20413;-75
2022/05/23 12:52:59;;;;;;;6.50;3.53;;;27.80;14.00;;;;;;5010201;28;20389;-74
2022/05/23 12:56:03;;;;;;;6.93;3.40;;;27.80;14.00;;;;;;5006304;28;20406;-76
2022/05/23 12:58:47;;;;;;;6.75;3.40;;;27.60;14.80;;;;;;5020982;28;20389;-76
2022/05/23 13:01:21;;;;;;;7.45;3.67;;;27.20;15.30;;;;;;5000657;28;20429;-73
2022/05/23 13:03:55;;;;;;;8.38;3.75;;;26.90;15.50;;;;;;5008307;28;20750;-74
2022/05/23 13:06:28;;;;;;;6.25;3.90;;;26.60;16.40;;;;;;5012116;28;20483;-74
2022/05/23 13:09:06;;;;;;;8.70;4.30;;;26.40;18.60;;;;;;5008397;28;20424;-76
2022/05/23 13:11:34;;;;;;;7.72;4.00;;;26.10;19.40;;;;;;5009179;28;20413;-77
2022/05/23 13:14:00;;;;;;;8.90;4.40;;;25.80;19.50;;;;;;5013139;28;20882;-75
2022/05/23 13:16:28;;;;;;;7.40;4.40;;;25.70;20.20;;;;;;5021733;28;20411;-75
2022/05/23 13:27:13;;;;;;;7.72;4.38;;;25.30;21.80;;;;;;4998655;28;20419;-75
2022/05/23 13:29:40;;;;;;;10.02;4.70;;;25.30;24.10;;;;;;5011030;28;20409;-76
2022/05/23 13:32:12;;;;;;;7.63;4.53;;;25.10;25.20;;;;;;5010324;28;20463;-75
2022/05/23 13:34:40;;;;;;;9.40;4.80;;;25.10;27.40;;;;;;5011660;28;20388;-75
2022/05/23 13:37:07;;;;;;;17.33;4.18;;;24.70;28.90;;;;;;5012068;28;20858;-74
2022/05/23 13:39:42;;;;;;;15.48;5.40;;;24.50;28.80;;;;;;5011741;28;20392;-75
2022/05/23 13:42:23;;;;;;;10.05;4.47;;;24.40;27.70;;;;;;5012477;28;20406;-75
2022/05/23 13:44:50;;;;;;;11.43;4.90;;;24.30;29.00;;;;;;4998670;28;20493;-75
2022/05/23 13:47:24;;;;;;;8.80;4.30;;;24.30;30.00;;;;;;5011633;28;20892;-75
2022/05/23 13:49:55;;;;;;;9.73;4.45;;;24.20;30.50;;;;;;5011581;28;20433;-76
2022/05/23 13:52:31;;;;;;;17.42;5.28;;;24.20;30.60;;;;;;5012884;28;20893;-76
2022/05/23 13:55:14;;;;;;;13.25;5.55;;;23.90;34.50;;;;;;5004655;28;20412;-75
2022/05/23 13:57:48;;;;;;;13.50;5.70;;;23.70;36.10;;;;;;5011336;28;20464;-74
2022/05/23 14:00:20;;;;;;;10.73;5.90;;;23.50;38.40;;;;;;4994115;28;20409;-75
2022/05/23 14:03:06;;;;;;;15.02;5.50;;;23.20;37.60;;;;;;4998460;28;20767;-75
2022/05/23 14:05:36;;;;;;;11.32;5.50;;;23.10;39.00;;;;;;5007966;28;20637;-75
2022/05/23 14:08:04;;;;;;;17.35;5.00;;;23.00;42.30;;;;;;5012347;28;20476;-76
2022/05/23 14:10:29;;;;;;;10.48;5.10;;;22.90;41.40;;;;;;5012393;28;20418;-75
2022/05/23 14:12:58;;;;;;;19.23;5.40;;;23.00;40.30;;;;;;5017167;28;20400;-73